createdAt,value
2022-12-25T00:00:20.726Z,98.15
2022-12-25T00:02:48.879Z,98.32
2022-12-25T00:05:16.856Z,98.42
2022-12-25T00:07:44.352Z,98.42
2022-12-25T00:10:12.382Z,98.10
2022-12-25T00:12:40.125Z,98.72
2022-12-25T00:15:08.278Z,98.62
2022-12-25T00:17:37.194Z,98.24
2022-12-25T00:20:05.687Z,97.78
2022-12-25T00:22:33.398Z,98.54
2022-12-25T00:25:00.950Z,97.59
2022-12-25T00:27:32.676Z,98.13
2022-12-25T00:30:00.521Z,98.47
2022-12-25T00:32:28.166Z,98.53
2022-12-25T00:34:57.106Z,98.21
2022-12-25T00:37:24.652Z,97.70
2022-12-25T00:39:52.221Z,98.22
2022-12-25T00:42:19.805Z,97.78
2022-12-25T00:44:47.531Z,98.21
2022-12-25T00:47:15.529Z,98.25
2022-12-25T00:49:43.204Z,99.14
2022-12-25T00:52:12.194Z,99.61
2022-12-25T00:54:40.001Z,99.78
2022-12-25T00:57:07.599Z,99.32
2022-12-25T00:59:35.729Z,99.06
2022-12-25T01:02:58.253Z,99.82
2022-12-25T01:05:25.878Z,99.47
2022-12-25T01:07:56.817Z,99.01
2022-12-25T01:10:23.647Z,99.03
2022-12-25T01:12:52.277Z,98.86
2022-12-25T01:15:22.891Z,98.70
2022-12-25T01:17:50.853Z,99.01
2022-12-25T01:20:19.225Z,97.89
2022-12-25T01:22:48.508Z,97.84
2022-12-25T01:25:19.594Z,98.24
2022-12-25T01:27:47.597Z,97.36
2022-12-25T01:30:17.578Z,97.81
2022-12-25T01:32:45.547Z,97.10
2022-12-25T01:35:13.181Z,98.00
2022-12-25T01:37:40.720Z,97.75
2022-12-25T01:40:09.829Z,97.93
2022-12-25T01:42:38.898Z,97.02
2022-12-25T01:45:34.694Z,97.14
2022-12-25T01:48:04.592Z,96.67
2022-12-25T01:50:32.308Z,97.04
2022-12-25T01:52:59.849Z,97.46
2022-12-25T01:55:27.847Z,97.61
2022-12-25T01:57:57.199Z,97.45
2022-12-25T02:00:24.967Z,97.26
2022-12-25T02:02:55.644Z,98.00
2022-12-25T02:05:26.865Z,97.83
2022-12-25T02:07:55.870Z,98.20
2022-12-25T02:10:23.473Z,98.41
2022-12-25T02:12:51.074Z,98.36
2022-12-25T02:15:22.701Z,98.54
2022-12-25T02:17:58.629Z,98.18
2022-12-25T02:20:37.086Z,97.71
2022-12-25T02:23:14.856Z,97.92
2022-12-25T02:25:49.745Z,98.22
2022-12-25T02:28:21.366Z,98.18
2022-12-25T02:30:53.964Z,98.35
2022-12-25T02:33:43.121Z,98.34
2022-12-25T02:36:15.194Z,98.09
2022-12-25T02:39:03.104Z,97.96
2022-12-25T02:41:34.084Z,97.85
2022-12-25T02:44:23.048Z,98.70
2022-12-25T02:47:08.260Z,98.19
2022-12-25T02:49:53.147Z,98.37
2022-12-25T02:52:39.559Z,98.23
2022-12-25T02:55:28.419Z,98.24
2022-12-25T02:58:15.134Z,98.20
2022-12-25T03:01:05.463Z,98.35
2022-12-25T03:03:53.296Z,98.83
2022-12-25T03:06:39.197Z,98.55
2022-12-25T03:09:21.285Z,98.84
2022-12-25T03:11:49.324Z,98.38
2022-12-25T03:14:34.857Z,98.57
2022-12-25T03:17:03.741Z,98.67
2022-12-25T03:19:51.024Z,98.76
2022-12-25T03:22:40.761Z,98.94
2022-12-25T03:25:26.523Z,98.83
2022-12-25T03:27:56.593Z,99.19
2022-12-25T03:30:42.237Z,99.19
2022-12-25T03:33:43.811Z,99.13
2022-12-25T03:36:10.080Z,99.19
2022-12-25T03:39:02.345Z,99.07
2022-12-25T03:41:52.263Z,97.46
2022-12-25T03:44:42.581Z,97.92
2022-12-25T03:47:36.211Z,98.11
2022-12-25T03:50:26.075Z,98.16
2022-12-25T03:53:12.269Z,98.14
2022-12-25T03:55:54.520Z,97.92
2022-12-25T03:58:42.050Z,98.20
2022-12-25T04:01:27.505Z,98.36
2022-12-25T04:04:12.636Z,98.83
2022-12-25T04:06:59.089Z,98.75
2022-12-25T04:09:44.464Z,98.48
2022-12-25T04:12:29.653Z,99.08
2022-12-25T04:15:14.915Z,98.49
2022-12-25T04:18:14.489Z,98.61
2022-12-25T04:20:59.796Z,98.88
2022-12-25T04:23:46.416Z,98.51
2022-12-25T04:26:31.135Z,98.98
2022-12-25T04:29:16.434Z,98.42
2022-12-25T04:32:01.710Z,98.57
2022-12-25T04:34:47.194Z,96.75
2022-12-25T04:37:14.661Z,96.14
2022-12-25T04:39:43.489Z,96.47
2022-12-25T04:42:10.970Z,95.53
2022-12-25T04:44:38.434Z,96.10
2022-12-25T04:47:11.151Z,96.50
2022-12-25T04:49:39.288Z,97.31
2022-12-25T04:52:06.736Z,97.76
2022-12-25T04:54:34.220Z,97.99
2022-12-25T04:57:03.055Z,97.64
2022-12-25T04:59:30.526Z,98.39
2022-12-25T05:01:58.147Z,98.19
2022-12-25T05:04:25.709Z,98.15
2022-12-25T05:06:53.168Z,98.49
2022-12-25T05:09:21.447Z,98.73
2022-12-25T05:11:48.881Z,98.33
2022-12-25T05:14:17.787Z,98.80
2022-12-25T05:16:45.401Z,99.00
2022-12-25T05:19:12.861Z,99.15
2022-12-25T05:21:40.320Z,98.97
2022-12-25T05:24:08.174Z,98.72
2022-12-25T05:26:35.617Z,98.40
2022-12-25T05:29:03.055Z,98.49
2022-12-25T05:31:31.995Z,98.57
2022-12-25T05:33:59.497Z,98.77
2022-12-25T05:36:26.992Z,99.05
2022-12-25T05:38:54.441Z,98.86
2022-12-25T05:41:21.945Z,98.63
2022-12-25T05:43:49.451Z,99.03
2022-12-25T05:46:17.792Z,98.91
2022-12-25T05:48:46.645Z,98.41
2022-12-25T05:51:15.414Z,98.94
2022-12-25T05:53:43.850Z,98.85
2022-12-25T05:56:11.700Z,98.84
2022-12-25T05:58:40.520Z,99.23
2022-12-25T06:01:11.876Z,98.97
2022-12-25T06:03:39.489Z,98.84
2022-12-25T06:06:08.572Z,99.28
2022-12-25T06:08:36.183Z,98.65
2022-12-25T06:11:05.327Z,98.85
2022-12-25T06:13:33.846Z,99.19
2022-12-25T06:16:04.796Z,98.55
2022-12-25T06:18:32.512Z,98.58
2022-12-25T06:20:59.971Z,98.64
2022-12-25T06:23:28.858Z,98.57
2022-12-25T06:25:56.296Z,98.15
2022-12-25T06:28:23.755Z,97.42
2022-12-25T06:30:51.223Z,97.14
2022-12-25T06:33:19.692Z,96.69
2022-12-25T06:35:47.148Z,97.47
2022-12-25T06:38:14.586Z,97.58
2022-12-25T06:40:43.380Z,98.42
2022-12-25T06:43:10.805Z,98.18
2022-12-25T06:45:38.297Z,97.57
2022-12-25T06:48:06.182Z,97.31
2022-12-25T06:50:33.641Z,98.09
2022-12-25T06:53:01.107Z,98.08
2022-12-25T06:55:28.577Z,97.56
2022-12-25T06:57:57.369Z,97.71
2022-12-25T07:00:24.835Z,97.55
2022-12-25T07:02:52.571Z,98.58
2022-12-25T07:05:20.128Z,98.71
2022-12-25T07:07:47.573Z,98.65
2022-12-25T07:10:15.218Z,98.75
2022-12-25T07:12:42.691Z,99.18
2022-12-25T07:15:12.008Z,98.81
2022-12-25T07:17:39.527Z,99.20
2022-12-25T07:20:08.451Z,99.20
2022-12-25T07:22:35.969Z,99.24
2022-12-25T07:25:03.505Z,99.01
2022-12-25T07:27:31.032Z,98.94
2022-12-25T07:29:58.480Z,99.35
2022-12-25T07:32:27.297Z,98.54
2022-12-25T07:34:54.717Z,97.80
2022-12-25T07:37:22.171Z,97.47
2022-12-25T07:39:49.628Z,96.80
2022-12-25T07:42:21.754Z,98.18
2022-12-25T07:44:52.424Z,97.02
2022-12-25T07:47:19.862Z,97.15
2022-12-25T07:49:48.657Z,97.95
2022-12-25T07:52:16.128Z,97.37
2022-12-25T07:54:43.602Z,96.58
2022-12-25T07:57:11.115Z,96.60
2022-12-25T07:59:38.557Z,97.21
2022-12-25T08:02:06.359Z,97.48
2022-12-25T08:04:34.031Z,97.74
2022-12-25T08:07:02.876Z,97.44
2022-12-25T08:09:30.301Z,97.60
2022-12-25T08:11:57.807Z,97.83
2022-12-25T08:14:25.330Z,97.30
2022-12-25T08:16:52.919Z,97.65
2022-12-25T08:19:20.548Z,97.79
2022-12-25T08:21:48.019Z,98.07
2022-12-25T08:24:16.870Z,96.41
2022-12-25T08:26:44.354Z,96.66
2022-12-25T08:29:11.805Z,95.46
2022-12-25T08:31:45.783Z,96.70
2022-12-25T08:34:13.717Z,97.35
2022-12-25T08:36:41.441Z,97.24
2022-12-25T08:39:09.146Z,96.68
2022-12-25T08:41:40.262Z,96.29
2022-12-25T08:44:08.044Z,95.14
2022-12-25T08:46:36.620Z,95.86
2022-12-25T08:49:04.273Z,95.79
2022-12-25T08:51:31.860Z,96.67
2022-12-25T08:54:01.136Z,96.14
2022-12-25T08:56:28.848Z,95.88
2022-12-25T08:58:57.756Z,96.66
2022-12-25T09:01:25.409Z,97.02
2022-12-25T09:03:53.045Z,96.97
2022-12-25T09:06:20.663Z,97.41
2022-12-25T09:08:49.800Z,97.63
2022-12-25T09:11:19.168Z,97.75
2022-12-25T09:13:46.915Z,97.71
2022-12-25T09:16:18.076Z,97.96
2022-12-25T09:18:45.814Z,98.19
2022-12-25T09:21:15.761Z,97.77
2022-12-25T09:23:43.615Z,97.97
2022-12-25T09:26:13.518Z,97.38
2022-12-25T09:28:45.333Z,97.04
2022-12-25T09:31:19.560Z,97.53
2022-12-25T09:33:47.353Z,95.47
2022-12-25T09:36:15.149Z,95.96
2022-12-25T09:38:42.920Z,96.04
2022-12-25T09:41:15.963Z,96.53
2022-12-25T09:43:47.053Z,96.25
2022-12-25T09:46:16.981Z,96.93
2022-12-25T09:52:34.859Z,97.08
2022-12-25T09:55:08.038Z,96.23
2022-12-25T09:57:35.495Z,97.01
2022-12-25T10:00:03.119Z,96.40
2022-12-25T10:02:37.718Z,96.13
2022-12-25T10:05:19.550Z,95.09
2022-12-25T10:07:51.840Z,94.83
2022-12-25T10:10:30.601Z,94.63
2022-12-25T10:13:04.182Z,95.55
2022-12-25T10:15:36.712Z,94.88
2022-12-25T10:18:33.854Z,94.85
2022-12-25T10:21:05.720Z,95.03
2022-12-25T10:23:39.424Z,94.27
2022-12-25T10:26:15.202Z,95.00
2022-12-25T10:28:45.764Z,95.63
2022-12-25T10:31:20.444Z,94.68
2022-12-25T10:33:48.138Z,93.53
2022-12-25T10:36:21.017Z,93.92
2022-12-25T10:38:48.931Z,93.27
2022-12-25T10:41:27.312Z,92.13
2022-12-25T10:43:56.332Z,92.49
2022-12-25T10:46:27.452Z,92.55
2022-12-25T10:48:57.692Z,93.08
2022-12-25T10:51:31.616Z,92.14
2022-12-25T10:53:59.201Z,92.97
2022-12-25T10:56:26.773Z,93.61
2022-12-25T10:59:05.624Z,93.79
2022-12-25T11:01:33.306Z,94.74
2022-12-25T11:04:01.019Z,94.37
2022-12-25T11:06:32.018Z,94.92
2022-12-25T11:09:01.742Z,94.54
2022-12-25T11:11:30.699Z,93.95
2022-12-25T11:14:00.232Z,92.24
2022-12-25T11:16:30.759Z,91.30
2022-12-25T11:18:59.818Z,90.07
2022-12-25T11:21:31.168Z,90.39
2022-12-25T11:24:00.386Z,90.74
2022-12-25T11:26:28.300Z,91.47
2022-12-25T11:28:56.633Z,91.98
2022-12-25T11:31:30.987Z,91.95
2022-12-25T11:34:01.632Z,93.13
2022-12-25T11:36:33.165Z,94.32
2022-12-25T11:39:02.746Z,94.00
2022-12-25T11:41:33.540Z,94.84
2022-12-25T11:44:04.864Z,94.89
2022-12-25T11:46:37.176Z,95.02
2022-12-25T11:49:08.280Z,95.41
2022-12-25T11:51:39.835Z,95.58
2022-12-25T11:54:15.514Z,95.74
2022-12-25T11:56:43.402Z,94.83
2022-12-25T11:59:18.239Z,95.57
2022-12-25T12:01:48.311Z,95.34
2022-12-25T12:04:24.310Z,94.31
2022-12-25T12:06:58.600Z,95.10
2022-12-25T12:09:37.781Z,94.21
2022-12-25T12:12:09.890Z,92.02
2022-12-25T12:14:46.499Z,91.59
2022-12-25T12:17:16.032Z,92.06
2022-12-25T12:19:43.548Z,94.92
2022-12-25T12:22:25.106Z,94.38
2022-12-25T12:24:56.682Z,94.73
2022-12-25T12:27:28.300Z,94.35
2022-12-25T12:29:57.549Z,93.32
2022-12-25T12:32:31.126Z,93.60
2022-12-25T12:34:59.012Z,93.17
2022-12-25T12:37:30.315Z,92.79
2022-12-25T12:39:57.903Z,93.18
2022-12-25T12:42:27.530Z,93.01
2022-12-25T12:44:55.679Z,92.88
2022-12-25T12:47:31.230Z,92.34
2022-12-25T12:50:00.284Z,92.87
2022-12-25T12:52:33.403Z,92.80
2022-12-25T12:55:02.763Z,92.96
2022-12-25T12:57:32.727Z,92.29
2022-12-25T13:00:08.623Z,92.35
2022-12-25T13:03:06.715Z,92.27
2022-12-25T13:05:39.242Z,92.69
2022-12-25T13:08:15.683Z,92.17
2022-12-25T13:10:46.758Z,91.89
2022-12-25T13:13:17.979Z,92.44
2022-12-25T13:15:47.525Z,92.33
2022-12-25T13:18:15.499Z,92.25
2022-12-25T13:20:46.906Z,92.44
2022-12-25T13:23:22.253Z,91.46
2022-12-25T13:25:53.538Z,92.35
2022-12-25T13:28:26.719Z,92.10
2022-12-25T13:30:54.273Z,92.13
2022-12-25T13:33:22.012Z,91.93
2022-12-25T13:35:49.556Z,91.59
2022-12-25T13:38:18.905Z,91.84
2022-12-25T13:41:11.228Z,91.76
2022-12-25T13:43:39.221Z,92.02
2022-12-25T13:46:06.942Z,91.51
2022-12-25T13:48:34.604Z,91.79
2022-12-25T13:51:03.043Z,91.65
2022-12-25T13:53:32.172Z,91.59
2022-12-25T13:56:00.269Z,91.67
2022-12-25T13:58:30.939Z,91.84
2022-12-25T14:00:59.554Z,91.43
2022-12-25T14:03:32.151Z,92.02
2022-12-25T14:06:01.993Z,92.05
2022-12-25T14:08:32.467Z,91.35
2022-12-25T14:11:03.562Z,91.52
2022-12-25T14:13:32.000Z,91.85
2022-12-25T14:15:59.750Z,91.91
2022-12-25T14:18:28.054Z,91.56
2022-12-25T14:20:59.148Z,92.06
2022-12-25T14:23:26.957Z,91.93
2022-12-25T14:25:56.389Z,91.91
2022-12-25T14:28:26.739Z,91.73
2022-12-25T14:30:54.545Z,91.31
2022-12-25T14:33:23.990Z,91.41
2022-12-25T14:35:52.401Z,91.38
2022-12-25T14:38:24.141Z,91.31
2022-12-25T14:41:00.647Z,92.18
2022-12-25T14:43:29.624Z,91.80
2022-12-25T14:45:58.841Z,92.07
2022-12-25T14:48:27.917Z,91.80
2022-12-25T14:50:58.736Z,91.85
2022-12-25T14:53:33.418Z,91.76
2022-12-25T14:56:02.327Z,91.70
2022-12-25T14:58:32.695Z,91.43
2022-12-25T15:01:02.379Z,91.88
2022-12-25T15:03:32.772Z,91.15
2022-12-25T15:06:02.268Z,91.35
2022-12-25T15:08:31.231Z,91.72
2022-12-25T15:11:01.675Z,91.70
2022-12-25T15:13:31.964Z,92.43
2022-12-25T15:16:02.502Z,92.59
2022-12-25T15:18:32.922Z,92.36
2022-12-25T15:21:00.564Z,92.80
2022-12-25T15:23:28.035Z,92.35
2022-12-25T15:25:55.487Z,92.74
2022-12-25T15:28:22.957Z,93.35
2022-12-25T15:30:52.024Z,92.36
2022-12-25T15:33:20.105Z,92.78
2022-12-25T15:35:47.596Z,92.99
2022-12-25T15:38:15.195Z,93.07
2022-12-25T15:40:43.004Z,92.18
2022-12-25T15:43:38.987Z,93.06
2022-12-25T15:46:02.682Z,93.09
2022-12-25T15:48:30.172Z,92.65
2022-12-25T15:50:57.661Z,92.92
2022-12-25T15:53:26.798Z,93.58
2022-12-25T15:55:54.367Z,93.14
2022-12-25T15:58:21.789Z,93.69
2022-12-25T16:00:49.903Z,93.75
2022-12-25T16:03:18.708Z,94.89
2022-12-25T16:05:46.315Z,94.01
2022-12-25T16:08:13.822Z,94.57
2022-12-25T16:10:41.429Z,94.51
2022-12-25T16:13:08.901Z,94.38
2022-12-25T16:15:36.430Z,95.32
2022-12-25T16:18:04.388Z,94.60
2022-12-25T16:20:33.278Z,95.34
2022-12-25T16:23:00.752Z,94.42
2022-12-25T16:25:28.265Z,94.79
2022-12-25T16:27:55.736Z,94.88
2022-12-25T16:30:23.253Z,94.93
2022-12-25T16:32:51.705Z,95.41
2022-12-25T16:35:19.337Z,94.97
2022-12-25T16:37:48.142Z,94.80
2022-12-25T16:40:15.711Z,94.86
2022-12-25T16:42:43.294Z,95.00
2022-12-25T16:45:11.715Z,95.13
2022-12-25T16:47:39.266Z,95.86
2022-12-25T16:50:09.800Z,95.61
2022-12-25T16:52:37.368Z,95.84
2022-12-25T16:55:06.981Z,95.48
2022-12-25T16:57:34.675Z,95.55
2022-12-25T17:00:02.328Z,95.05
2022-12-25T17:02:30.276Z,95.36
2022-12-25T17:04:58.049Z,95.45
2022-12-25T17:07:25.589Z,96.40
2022-12-25T17:09:53.075Z,96.79
2022-12-25T17:12:21.912Z,96.37
2022-12-25T17:14:49.403Z,95.95
2022-12-25T17:17:16.995Z,95.41
2022-12-25T17:19:44.563Z,96.14
2022-12-25T17:22:12.137Z,96.25
2022-12-25T17:24:41.348Z,96.17
2022-12-25T17:27:09.389Z,96.17
2022-12-25T17:29:39.670Z,96.98
2022-12-25T17:32:07.769Z,96.33
2022-12-25T17:34:35.443Z,96.16
2022-12-25T17:37:02.957Z,96.53
2022-12-25T17:39:30.649Z,96.67
2022-12-25T17:41:58.381Z,96.13
2022-12-25T17:44:28.886Z,96.57
2022-12-25T17:46:57.774Z,96.79
2022-12-25T17:49:25.544Z,96.54
2022-12-25T17:51:54.857Z,96.61
2022-12-25T17:54:22.472Z,96.86
2022-12-25T17:56:50.628Z,96.59
2022-12-25T17:59:19.133Z,96.61
2022-12-25T18:01:48.909Z,96.70
2022-12-25T18:04:17.929Z,97.05
2022-12-25T18:06:45.725Z,97.31
2022-12-25T18:09:13.847Z,97.11
2022-12-25T18:11:43.150Z,96.81
2022-12-25T18:14:13.090Z,97.48
2022-12-25T18:16:43.324Z,96.92
2022-12-25T18:19:11.134Z,97.34
2022-12-25T18:21:40.192Z,97.58
2022-12-25T18:24:09.001Z,97.09
2022-12-25T18:26:37.471Z,96.77
2022-12-25T18:29:06.686Z,97.36
2022-12-25T18:31:34.718Z,97.54
2022-12-25T18:34:02.449Z,97.31
2022-12-25T18:36:30.874Z,97.19
2022-12-25T18:39:00.303Z,97.34
2022-12-25T18:41:30.158Z,97.60
2022-12-25T18:43:58.173Z,97.04
2022-12-25T18:46:26.708Z,97.80
2022-12-25T18:48:54.817Z,98.04
2022-12-25T18:51:22.320Z,98.31
2022-12-25T18:53:49.853Z,98.17
2022-12-25T18:56:19.092Z,98.16
2022-12-25T18:58:47.022Z,98.02
2022-12-25T19:01:16.047Z,97.65
2022-12-25T19:03:44.057Z,97.40
2022-12-25T19:06:17.757Z,97.69
2022-12-25T19:08:45.464Z,98.47
2022-12-25T19:11:13.142Z,97.68
2022-12-25T19:13:42.195Z,98.58
2022-12-25T19:16:10.830Z,97.90
2022-12-25T19:18:38.760Z,98.17
2022-12-25T19:21:08.201Z,98.26
2022-12-25T19:23:37.663Z,97.64
2022-12-25T19:26:05.839Z,97.68
2022-12-25T19:28:33.395Z,98.33
2022-12-25T19:31:02.918Z,98.65
2022-12-25T19:33:32.147Z,98.77
2022-12-25T19:36:00.815Z,98.57
2022-12-25T19:38:28.488Z,98.41
2022-12-25T19:41:02.280Z,98.67
2022-12-25T19:43:30.479Z,98.61
2022-12-25T19:45:58.445Z,98.05
2022-12-25T19:48:27.382Z,98.66
2022-12-25T19:50:55.314Z,98.75
2022-12-25T19:53:24.060Z,99.17
2022-12-25T19:55:52.231Z,98.56
2022-12-25T19:58:19.849Z,98.94
2022-12-25T20:00:58.003Z,99.23
2022-12-25T20:03:27.320Z,98.79
2022-12-25T20:05:55.074Z,98.40
2022-12-25T20:08:22.681Z,98.14
2022-12-25T20:10:50.551Z,98.50
2022-12-25T20:13:18.224Z,99.04
2022-12-25T20:15:46.100Z,98.41
2022-12-25T20:18:13.637Z,98.95
2022-12-25T20:20:42.851Z,98.81
2022-12-25T20:23:10.719Z,99.19
2022-12-25T20:25:40.510Z,98.22
2022-12-25T20:28:08.291Z,98.36
2022-12-25T20:30:39.433Z,98.71
2022-12-25T20:33:07.014Z,98.37
2022-12-25T20:35:34.580Z,98.28
2022-12-25T20:38:03.558Z,98.79
2022-12-25T20:40:37.584Z,99.27
2022-12-25T20:43:18.743Z,99.25
2022-12-25T20:45:46.572Z,99.26
2022-12-25T20:48:14.164Z,98.56
2022-12-25T20:50:41.711Z,98.89
2022-12-25T20:53:10.716Z,98.97
2022-12-25T20:55:38.374Z,97.71
2022-12-25T20:58:05.879Z,97.33
2022-12-25T21:00:33.530Z,98.45
2022-12-25T21:03:01.145Z,98.02
2022-12-25T21:05:28.856Z,97.36
2022-12-25T21:07:56.440Z,97.00
2022-12-25T21:10:25.549Z,97.00
2022-12-25T21:12:53.118Z,96.41
2022-12-25T21:15:20.832Z,96.42
2022-12-25T21:17:48.400Z,96.52
2022-12-25T21:20:16.098Z,95.25
2022-12-25T21:22:43.693Z,94.38
2022-12-25T21:25:11.299Z,95.24
2022-12-25T21:27:40.558Z,94.39
2022-12-25T21:30:14.393Z,94.52
2022-12-25T21:33:00.514Z,94.29
2022-12-25T21:35:28.124Z,94.75
2022-12-25T21:37:55.727Z,93.80
2022-12-25T21:40:23.286Z,93.98
2022-12-25T21:42:52.851Z,93.30
2022-12-25T21:45:20.406Z,92.93
2022-12-25T21:48:02.447Z,93.20
2022-12-25T21:50:48.784Z,93.78
2022-12-25T21:53:16.763Z,92.50
2022-12-25T21:55:44.349Z,93.07
2022-12-25T21:58:13.233Z,92.92
2022-12-25T22:00:40.778Z,93.02
2022-12-25T22:03:08.508Z,93.77
2022-12-25T22:05:54.905Z,93.45
2022-12-25T22:08:22.469Z,93.52
2022-12-25T22:10:50.029Z,92.51
2022-12-25T22:13:36.553Z,92.60
2022-12-25T22:16:22.509Z,92.49
2022-12-25T22:19:07.651Z,91.70
2022-12-25T22:21:35.321Z,91.79
2022-12-25T22:24:02.900Z,92.34
2022-12-25T22:26:31.151Z,91.72
2022-12-25T22:29:00.112Z,92.39
2022-12-25T22:31:27.703Z,92.49
2022-12-25T22:33:55.342Z,92.00
2022-12-25T22:36:23.527Z,91.50
2022-12-25T22:38:51.067Z,92.03
2022-12-25T22:41:21.616Z,91.37
2022-12-25T22:44:16.496Z,91.37
2022-12-25T22:46:40.593Z,91.72
2022-12-25T22:49:08.505Z,92.05
2022-12-25T22:51:38.480Z,91.03
2022-12-25T22:54:12.440Z,90.98
2022-12-25T22:56:40.986Z,91.48
2022-12-25T22:59:09.272Z,91.08
2022-12-25T23:01:40.038Z,91.74
2022-12-25T23:04:09.216Z,91.31
2022-12-25T23:06:37.499Z,91.53
2022-12-25T23:09:08.312Z,90.81
2022-12-25T23:11:38.039Z,91.14
2022-12-25T23:14:28.123Z,90.44
2022-12-25T23:16:57.453Z,89.79
2022-12-25T23:19:42.648Z,90.01
2022-12-25T23:22:33.546Z,90.45
2022-12-25T23:25:21.069Z,89.62
2022-12-25T23:27:48.917Z,89.09
2022-12-25T23:30:16.878Z,89.52
2022-12-25T23:32:46.031Z,89.19
2022-12-25T23:35:16.202Z,89.84
2022-12-25T23:37:58.757Z,89.49
2022-12-25T23:40:26.705Z,89.63
2022-12-25T23:42:54.707Z,89.53
2022-12-25T23:45:25.270Z,89.55
2022-12-25T23:47:56.772Z,89.08
2022-12-25T23:50:24.667Z,89.97
2022-12-25T23:52:52.871Z,89.76
2022-12-25T23:55:21.139Z,89.26
2022-12-25T23:57:49.209Z,89.19
